Fenn, Idaho
Current Conditions -  °F | °C
As of 3:55 PM on Wednesday 22 Oct 2014 (Local Time) from KGIC Reporting Station
Clear Clear  
Wind Chill: 61°   Ceiling: Unl
Heat Index: 61°   Visibility: 10mi
Dew Point: 30°   Wind: 20mph
Humidity: 31%   Direction: 210°SSW
Pressure: 29.95"   Gusts: 26mph
Location:  45.96°N, 116.26°W
Report Text: KGIC 222255Z AUTO 21017G23KT 10SM CLR 16/M01 A2995 RMK AO1 T01631009
Loading
Personal Weather Stations






























Interactive Weather Map
Tropical Storm Tracking
New forecast layout! Learn more

10-Day Weather Forecast

Advertisements
Track Severe Weather on mobile